Time;durP1;ratioP1;P1;durP2;ratioP2;P2;SDS_P1;SDS_P2;PMS_P1;PMS_P2;Temp;Humidity;BMP_temperature;BMP_pressure;BME280_temperature;BME280_humidity;BME280_pressure;Samples;Min_cycle;Max_cycle;Signal;HPM_P1;HPM_P2
2022/09/18 00:00:29;;;;;;;25.53;12.40;;;24.10;82.10;;;;;;5022931;28;88062;-49
2022/09/18 00:02:57;;;;;;;27.07;10.97;;;24.10;82.50;;;;;;5023664;28;87047;-49
2022/09/18 00:05:25;;;;;;;23.80;11.83;;;24.10;83.70;;;;;;5029629;28;88912;-49
2022/09/18 00:07:52;;;;;;;19.37;9.97;;;24.10;83.80;;;;;;5024955;28;88688;-48
2022/09/18 00:10:20;;;;;;;22.30;11.20;;;24.00;83.40;;;;;;5029023;28;87136;-49
2022/09/18 00:12:48;;;;;;;21.07;11.17;;;24.00;82.70;;;;;;5028967;28;87117;-49
2022/09/18 00:15:16;;;;;;;17.40;9.17;;;24.10;82.50;;;;;;5028094;28;87949;-49
2022/09/18 00:17:46;;;;;;;17.43;10.27;;;24.00;82.60;;;;;;5028791;28;89007;-49
2022/09/18 00:20:13;;;;;;;20.13;10.47;;;24.00;82.30;;;;;;5024663;28;87168;-49
2022/09/18 00:22:42;;;;;;;18.97;10.37;;;24.10;82.30;;;;;;5028538;28;87183;-48
2022/09/18 00:25:10;;;;;;;18.70;8.40;;;24.10;83.50;;;;;;5026529;28;89936;-49
2022/09/18 00:27:38;;;;;;;16.93;9.00;;;24.00;82.30;;;;;;5028829;28;89856;-49
2022/09/18 00:30:07;;;;;;;15.20;8.63;;;24.00;82.40;;;;;;5029289;28;87269;-49
2022/09/18 00:32:35;;;;;;;17.97;8.20;;;24.00;82.80;;;;;;5027763;28;86871;-48
2022/09/18 00:35:04;;;;;;;15.13;7.87;;;24.00;83.20;;;;;;5023679;28;88818;-49
2022/09/18 00:37:32;;;;;;;18.30;8.73;;;24.00;83.60;;;;;;5025524;28;88733;-49
2022/09/18 00:40:00;;;;;;;24.43;10.60;;;24.00;84.10;;;;;;5029176;28;86989;-49
2022/09/18 00:42:28;;;;;;;14.63;7.77;;;24.00;85.30;;;;;;5026271;28;86456;-49
2022/09/18 00:44:56;;;;;;;15.87;7.77;;;24.00;89.90;;;;;;5027539;28;88957;-48
2022/09/18 00:47:26;;;;;;;19.23;8.00;;;;;;;;;;5028413;28;87093;-48
2022/09/18 00:49:58;;;;;;;16.63;7.23;;;24.00;92.70;;;;;;5031251;28;87994;-48
2022/09/18 00:52:29;;;;;;;10.87;6.57;;;24.00;81.60;;;;;;5039615;28;86974;-48
2022/09/18 00:55:00;;;;;;;14.87;6.47;;;24.00;81.30;;;;;;5032437;28;89443;-48
2022/09/18 00:57:30;;;;;;;13.03;6.10;;;24.00;81.10;;;;;;5037702;28;89132;-48
2022/09/18 00:59:58;;;;;;;9.97;5.70;;;24.00;81.10;;;;;;5038099;28;86951;-48
2022/09/18 01:02:26;;;;;;;12.70;6.47;;;24.00;81.30;;;;;;5037115;28;87592;-50
2022/09/18 01:04:54;;;;;;;10.67;5.57;;;24.00;81.40;;;;;;5038362;27;89005;-50
2022/09/18 01:07:30;;;;;;;10.17;5.53;;;24.00;81.60;;;;;;5037769;28;87876;-49
2022/09/18 01:10:01;;;;;;;8.27;4.40;;;23.90;82.70;;;;;;5035532;28;87139;-49
2022/09/18 01:12:33;;;;;;;16.37;6.70;;;24.00;82.50;;;;;;5037784;28;87101;-49
2022/09/18 01:15:04;;;;;;;10.97;5.03;;;24.00;83.50;;;;;;5037019;28;90072;-49
2022/09/18 01:17:35;;;;;;;10.63;4.10;;;24.00;85.70;;;;;;5037341;28;88682;-50
2022/09/18 01:20:16;;;;;;;8.23;4.63;;;;;;;;;;5035375;28;88258;-49
2022/09/18 01:22:52;;;;;;;9.57;4.83;;;23.90;86.40;;;;;;5034759;28;86973;-49
2022/09/18 01:25:22;;;;;;;7.20;4.50;;;24.00;87.50;;;;;;5033212;28;89154;-49
2022/09/18 01:27:57;;;;;;;9.37;4.40;;;24.00;91.40;;;;;;5037984;28;87566;-50
2022/09/18 01:30:25;;;;;;;5.73;4.17;;;24.00;83.40;;;;;;5042600;27;87079;-49
2022/09/18 01:32:55;;;;;;;10.10;4.00;;;23.90;86.00;;;;;;5036538;27;86282;-50
2022/09/18 01:35:24;;;;;;;4.43;3.43;;;23.90;83.50;;;;;;5032938;28;89189;-50
2022/09/18 01:38:09;;;;;;;6.43;3.37;;;;;;;;;;5037443;28;88930;-49
2022/09/18 01:40:38;;;;;;;16.13;3.97;;;;;;;;;;5034247;28;89446;-49
2022/09/18 01:43:09;;;;;;;8.33;3.80;;;;;;;;;;5037839;28;86983;-49
2022/09/18 01:45:38;;;;;;;6.23;2.73;;;;;;;;;;5033210;28;89137;-49
2022/09/18 01:48:07;;;;;;;5.27;2.63;;;;;;;;;;5037457;28;88681;-49
2022/09/18 01:50:36;;;;;;;5.53;3.10;;;;;;;;;;5032266;28;86975;-49
2022/09/18 01:53:06;;;;;;;7.43;3.20;;;;;;;;;;5040408;27;87324;-49
2022/09/18 01:55:34;;;;;;;3.93;2.50;;;23.90;84.60;;;;;;5038875;27;89040;-49
2022/09/18 01:58:03;;;;;;;4.30;2.67;;;23.90;81.30;;;;;;5040447;27;89502;-49
2022/09/18 02:00:32;;;;;;;5.07;2.70;;;23.90;80.90;;;;;;5034178;27;87157;-49
2022/09/18 02:03:02;;;;;;;5.03;2.50;;;23.90;80.90;;;;;;5041486;27;86930;-49
2022/09/18 02:05:35;;;;;;;2.83;1.90;;;23.90;80.80;;;;;;5039179;27;90096;-49
2022/09/18 02:08:08;;;;;;;4.47;2.37;;;23.90;80.90;;;;;;5034019;27;89472;-49
2022/09/18 02:10:40;;;;;;;5.57;2.93;;;23.90;80.90;;;;;;5034041;28;87063;-50
2022/09/18 02:13:08;;;;;;;2.83;2.50;;;23.90;80.90;;;;;;5038182;27;87654;-49
2022/09/18 02:15:38;;;;;;;7.60;2.87;;;23.90;81.30;;;;;;5039129;27;89216;-49
2022/09/18 02:18:08;;;;;;;2.63;1.90;;;23.90;81.20;;;;;;5039482;27;88916;-49
2022/09/18 02:20:36;;;;;;;3.47;2.17;;;23.90;81.30;;;;;;5038944;27;87183;-49
2022/09/18 02:23:06;;;;;;;4.53;2.00;;;23.90;81.70;;;;;;5042964;27;86408;-49
2022/09/18 02:25:37;;;;;;;6.13;2.13;;;23.90;81.60;;;;;;5039608;27;89363;-49
2022/09/18 02:28:05;;;;;;;3.87;2.07;;;23.90;81.80;;;;;;5045170;27;88664;-49
2022/09/18 02:30:33;;;;;;;5.27;2.03;;;23.90;82.50;;;;;;5042637;27;88153;-49
2022/09/18 02:33:03;;;;;;;2.57;1.63;;;23.90;82.70;;;;;;5041241;27;87114;-49
2022/09/18 02:35:34;;;;;;;3.80;1.90;;;23.90;83.20;;;;;;5043166;27;88960;-49
2022/09/18 02:38:03;;;;;;;3.07;2.43;;;;;;;;;;5039141;27;87872;-49
2022/09/18 02:40:32;;;;;;;3.40;1.80;;;;;;;;;;5041126;27;86919;-49
2022/09/18 02:43:04;;;;;;;2.37;1.50;;;;;;;;;;5040291;27;87018;-49
2022/09/18 02:45:33;;;;;;;2.93;1.60;;;;;;;;;;5043399;27;88946;-49
2022/09/18 02:48:08;;;;;;;2.57;1.60;;;;;;;;;;5036105;28;89149;-49
2022/09/18 02:50:38;;;;;;;2.47;1.50;;;;;;;;;;5040800;28;87140;-49
2022/09/18 02:53:06;;;;;;;3.23;1.43;;;;;;;;;;5041276;28;87144;-49
2022/09/18 02:55:38;;;;;;;3.97;2.03;;;;;;;;;;5035280;28;89019;-49
2022/09/18 02:58:06;;;;;;;1.77;1.60;;;;;;;;;;5040050;27;89799;-49
2022/09/18 03:00:34;;;;;;;2.07;1.63;;;;;;;;;;5039263;28;87083;-49
2022/09/18 03:03:03;;;;;;;1.50;0.87;;;;;;;;;;5040160;28;87053;-49
2022/09/18 03:05:33;;;;;;;5.67;1.23;;;;;;;;;;5040899;28;87804;-49
2022/09/18 03:08:01;;;;;;;1.63;1.00;;;;;;;;;;5039908;28;88956;-49
2022/09/18 03:10:30;;;;;;;2.97;1.27;;;;;;;;;;5040280;28;87091;-49
2022/09/18 03:12:58;;;;;;;2.27;1.10;;;;;;;;;;5041177;28;87451;-49
2022/09/18 03:15:26;;;;;;;1.97;1.37;;;;;;;;;;5040020;28;88469;-49
2022/09/18 03:17:54;;;;;;;1.60;0.80;;;23.80;84.20;;;;;;5040529;28;87440;-49
2022/09/18 03:20:22;;;;;;;1.87;1.13;;;23.90;83.20;;;;;;5040055;28;87906;-49
2022/09/18 03:22:51;;;;;;;2.30;1.37;;;23.90;82.20;;;;;;5040136;28;87187;-49
2022/09/18 03:25:19;;;;;;;2.43;1.33;;;23.80;81.60;;;;;;5040608;28;89080;-49
2022/09/18 03:27:47;;;;;;;2.73;1.00;;;23.80;81.20;;;;;;5040157;28;87653;-49
2022/09/18 03:30:15;;;;;;;1.53;1.23;;;23.90;81.20;;;;;;5040615;28;87056;-49
2022/09/18 03:32:43;;;;;;;1.53;0.90;;;23.80;80.90;;;;;;5040659;28;87096;-49
2022/09/18 03:35:11;;;;;;;0.90;0.90;;;23.80;80.60;;;;;;5040454;28;88274;-49
2022/09/18 03:37:39;;;;;;;1.53;1.00;;;23.80;80.60;;;;;;5040707;27;88627;-49
2022/09/18 03:40:09;;;;;;;2.40;1.17;;;23.80;80.60;;;;;;5040849;28;87040;-49
2022/09/18 03:42:37;;;;;;;1.93;0.93;;;23.80;80.40;;;;;;5039841;28;87661;-49
2022/09/18 03:45:06;;;;;;;1.23;0.80;;;23.80;80.50;;;;;;5039677;28;90407;-49
2022/09/18 03:47:34;;;;;;;2.00;1.07;;;24.10;80.70;;;;;;5028699;28;89640;-49
2022/09/18 03:50:04;;;;;;;1.97;1.17;;;23.80;80.50;;;;;;5019664;28;87031;-49
2022/09/18 03:52:34;;;;;;;1.03;0.90;;;23.80;80.20;;;;;;5012764;28;87046;-49
2022/09/18 03:55:02;;;;;;;1.97;1.00;;;23.90;80.50;;;;;;5021092;28;88968;-49
2022/09/18 03:57:31;;;;;;;1.17;0.97;;;23.80;81.10;;;;;;5014588;28;88874;-49
2022/09/18 03:59:59;;;;;;;1.73;1.20;;;23.80;80.40;;;;;;5021099;28;86961;-49
2022/09/18 04:02:27;;;;;;;2.00;0.97;;;23.80;80.30;;;;;;5019426;28;86357;-49
2022/09/18 04:04:55;;;;;;;2.40;1.23;;;23.80;80.30;;;;;;5013656;28;88510;-49
2022/09/18 04:07:23;;;;;;;1.53;0.80;;;23.80;80.40;;;;;;5018294;28;88730;-49
2022/09/18 04:09:51;;;;;;;6.80;1.00;;;23.80;80.40;;;;;;5021805;28;87865;-49
2022/09/18 04:12:19;;;;;;;0.93;0.83;;;23.80;80.50;;;;;;5013361;28;87014;-49
2022/09/18 04:14:48;;;;;;;1.03;0.80;;;23.80;80.50;;;;;;5014071;28;88067;-49
2022/09/18 04:17:16;;;;;;;0.97;0.53;;;23.80;80.50;;;;;;5013639;28;88816;-49
2022/09/18 04:19:44;;;;;;;1.47;0.80;;;23.80;80.20;;;;;;5013134;28;87241;-49
2022/09/18 04:22:18;;;;;;;1.73;0.80;;;23.80;80.40;;;;;;5014031;28;88493;-49
2022/09/18 04:24:46;;;;;;;1.33;0.87;;;23.80;80.40;;;;;;5018425;28;88876;-49
2022/09/18 04:27:14;;;;;;;0.60;0.57;;;23.80;80.40;;;;;;5018740;28;86313;-49
2022/09/18 04:29:42;;;;;;;1.77;0.70;;;23.80;80.30;;;;;;5016598;28;87815;-50
2022/09/18 04:32:11;;;;;;;0.70;0.60;;;23.80;80.30;;;;;;5012944;28;87081;-49
2022/09/18 04:34:39;;;;;;;0.43;0.43;;;23.80;80.50;;;;;;5022048;28;90157;-49
2022/09/18 04:37:07;;;;;;;1.23;0.80;;;23.80;80.40;;;;;;5020860;28;89633;-49
2022/09/18 04:39:37;;;;;;;0.67;0.60;;;23.80;80.40;;;;;;5016930;28;87695;-49
2022/09/18 04:42:05;;;;;;;0.80;0.73;;;23.80;80.50;;;;;;5014788;28;86938;-49
2022/09/18 04:44:33;;;;;;;0.60;0.60;;;23.80;80.50;;;;;;5015808;28;89153;-49
2022/09/18 04:47:01;;;;;;;1.43;0.40;;;23.80;80.60;;;;;;5008396;28;88441;-49
2022/09/18 04:49:30;;;;;;;1.27;0.80;;;23.70;80.30;;;;;;5019632;28;88259;-49
2022/09/18 04:51:58;;;;;;;0.80;0.80;;;23.70;80.40;;;;;;5009388;28;86236;-49
2022/09/18 04:54:26;;;;;;;0.87;0.80;;;23.80;80.50;;;;;;5017233;28;89205;-49
2022/09/18 04:56:55;;;;;;;2.20;1.10;;;23.70;80.40;;;;;;5009979;28;87941;-49
2022/09/18 04:59:23;;;;;;;1.50;0.60;;;23.70;80.60;;;;;;5014844;28;88409;-49
2022/09/18 05:01:51;;;;;;;1.63;0.90;;;23.70;80.50;;;;;;5021386;28;89267;-49
2022/09/18 05:04:19;;;;;;;1.50;0.70;;;23.70;80.30;;;;;;5021747;28;88920;-49
2022/09/18 05:06:48;;;;;;;1.03;0.80;;;23.70;80.50;;;;;;5013938;28;87546;-49
2022/09/18 05:09:16;;;;;;;1.73;0.73;;;23.70;80.60;;;;;;5019459;28;87861;-49
2022/09/18 05:11:44;;;;;;;1.63;0.77;;;23.80;80.60;;;;;;5020302;28;87006;-49
2022/09/18 05:14:12;;;;;;;1.30;0.93;;;23.70;80.60;;;;;;5015008;28;87691;-49
2022/09/18 05:16:40;;;;;;;1.80;0.77;;;23.80;80.70;;;;;;5021059;28;88631;-49
2022/09/18 05:19:08;;;;;;;1.23;0.50;;;23.70;80.40;;;;;;5015819;28;87073;-49
2022/09/18 05:21:36;;;;;;;4.13;0.63;;;23.70;80.50;;;;;;5018732;28;87194;-49
2022/09/18 05:24:06;;;;;;;0.90;0.60;;;23.70;80.50;;;;;;5013526;28;90230;-49
2022/09/18 05:26:34;;;;;;;2.57;0.80;;;23.70;80.50;;;;;;5016410;28;89137;-49
2022/09/18 05:29:02;;;;;;;0.77;0.70;;;23.70;80.40;;;;;;5022009;28;87117;-49
2022/09/18 05:31:30;;;;;;;1.53;0.57;;;23.70;80.40;;;;;;5019121;28;88640;-49
2022/09/18 05:33:58;;;;;;;1.37;0.80;;;23.70;80.40;;;;;;5008157;28;89383;-49
2022/09/18 05:36:26;;;;;;;1.20;0.63;;;23.60;80.30;;;;;;5022111;28;88157;-49
2022/09/18 05:38:54;;;;;;;3.17;0.93;;;24.30;82.00;;;;;;5014890;28;86885;-49
2022/09/18 05:41:23;;;;;;;1.40;0.77;;;23.70;80.60;;;;;;5021923;28;86276;-49
2022/09/18 05:43:51;;;;;;;1.80;0.90;;;23.70;80.60;;;;;;5024041;28;88969;-50
2022/09/18 05:46:19;;;;;;;3.83;1.50;;;23.70;80.50;;;;;;5008400;28;88673;-49
2022/09/18 05:48:48;;;;;;;2.60;1.30;;;;;;;;;;5030088;27;88030;-49
2022/09/18 05:51:16;;;;;;;1.33;1.10;;;23.60;79.40;;;;;;5036471;27;87134;-49
2022/09/18 05:53:47;;;;;;;2.83;1.60;;;23.70;80.60;;;;;;5039185;27;89340;-49
2022/09/18 05:56:15;;;;;;;2.13;1.57;;;23.70;80.60;;;;;;5035204;27;89396;-49
2022/09/18 05:58:45;;;;;;;3.03;1.23;;;23.70;80.50;;;;;;5037437;27;87060;-49
2022/09/18 06:01:13;;;;;;;1.50;1.10;;;23.70;80.60;;;;;;5039650;27;87106;-49
2022/09/18 06:03:41;;;;;;;2.97;1.30;;;23.70;80.40;;;;;;5041693;27;89178;-50
2022/09/18 06:06:09;;;;;;;3.33;1.63;;;23.70;80.60;;;;;;5041487;27;88717;-49
2022/09/18 06:08:37;;;;;;;4.90;1.43;;;23.70;80.60;;;;;;5038319;27;87109;-49
2022/09/18 06:11:05;;;;;;;4.03;1.90;;;23.60;80.60;;;;;;5041717;28;87514;-49
2022/09/18 06:13:33;;;;;;;2.50;1.63;;;23.60;80.70;;;;;;5041309;27;89804;-49
2022/09/18 06:16:02;;;;;;;2.43;1.63;;;23.70;80.70;;;;;;5046006;27;89249;-49
2022/09/18 06:18:30;;;;;;;3.57;2.10;;;23.60;80.70;;;;;;5043986;27;87755;-49
2022/09/18 06:20:59;;;;;;;3.80;2.00;;;23.60;80.80;;;;;;5042948;27;87238;-49
2022/09/18 06:23:27;;;;;;;5.00;2.30;;;23.60;80.90;;;;;;5041765;27;89115;-49
2022/09/18 06:25:58;;;;;;;6.07;2.47;;;23.60;80.80;;;;;;5037948;27;88855;-49
2022/09/18 06:28:27;;;;;;;2.50;1.77;;;23.60;81.00;;;;;;5043691;27;86997;-49
2022/09/18 06:30:55;;;;;;;2.77;1.80;;;23.60;81.00;;;;;;5056884;27;86364;-49
2022/09/18 06:33:24;;;;;;;2.90;2.13;;;23.60;81.00;;;;;;5050775;27;89172;-49
2022/09/18 06:35:52;;;;;;;3.53;1.87;;;23.60;81.00;;;;;;5043078;27;87437;-49
2022/09/18 06:38:20;;;;;;;3.13;1.80;;;23.70;81.10;;;;;;5048012;27;88008;-49
2022/09/18 06:40:49;;;;;;;2.87;1.20;;;23.60;81.00;;;;;;5062290;27;87482;-49
2022/09/18 06:43:17;;;;;;;3.97;2.33;;;23.60;80.90;;;;;;5054651;27;88932;-49
2022/09/18 06:45:50;;;;;;;4.83;2.37;;;23.60;81.00;;;;;;5056102;27;88808;-49
2022/09/18 06:48:18;;;;;;;2.50;1.93;;;23.60;81.00;;;;;;5055789;27;87213;-49
2022/09/18 06:50:52;;;;;;;2.17;1.93;;;23.70;81.10;;;;;;5061413;27;87150;-49
2022/09/18 06:53:20;;;;;;;5.43;2.37;;;23.70;81.10;;;;;;5055629;27;88714;-49
2022/09/18 06:55:48;;;;;;;4.13;2.40;;;23.70;81.10;;;;;;5042636;28;88910;-49
2022/09/18 06:58:16;;;;;;;5.10;2.10;;;23.70;81.30;;;;;;5047427;27;87388;-49
2022/09/18 07:00:45;;;;;;;2.40;1.53;;;23.70;81.50;;;;;;5049098;27;86896;-50
2022/09/18 07:03:13;;;;;;;5.00;2.20;;;23.70;81.60;;;;;;5046405;27;89995;-49
2022/09/18 07:05:41;;;;;;;3.80;2.00;;;23.60;81.50;;;;;;5050272;27;89446;-49
2022/09/18 07:08:11;;;;;;;4.23;1.90;;;23.70;81.90;;;;;;5049580;27;87156;-49
2022/09/18 07:10:39;;;;;;;3.10;2.13;;;23.70;81.90;;;;;;5042184;27;86946;-49
2022/09/18 07:13:07;;;;;;;6.40;2.97;;;23.60;81.90;;;;;;5052341;27;88122;-49
2022/09/18 07:15:35;;;;;;;4.43;2.90;;;23.70;82.00;;;;;;5053199;27;87712;-49
2022/09/18 07:18:04;;;;;;;4.23;2.53;;;23.70;82.10;;;;;;5041697;27;87070;-50
2022/09/18 07:20:32;;;;;;;3.77;2.33;;;23.70;82.20;;;;;;5052038;27;86432;-50
2022/09/18 07:23:00;;;;;;;3.50;2.13;;;23.80;82.50;;;;;;5053856;27;89003;-49
2022/09/18 07:25:30;;;;;;;5.23;2.80;;;23.80;82.40;;;;;;5048722;27;88622;-49
2022/09/18 07:28:02;;;;;;;4.13;2.43;;;23.80;82.60;;;;;;5057663;27;88200;-49
2022/09/18 07:30:30;;;;;;;2.50;1.70;;;23.80;82.60;;;;;;5042002;28;87038;-49
2022/09/18 07:32:58;;;;;;;3.43;2.43;;;23.80;82.80;;;;;;5042088;27;88845;-49
2022/09/18 07:35:27;;;;;;;3.73;2.50;;;23.80;82.60;;;;;;5043146;27;87672;-49
2022/09/18 07:37:57;;;;;;;4.50;2.53;;;23.80;82.60;;;;;;5043912;27;87060;-49
2022/09/18 07:40:26;;;;;;;4.57;2.70;;;23.70;82.70;;;;;;5062040;27;86978;-49
2022/09/18 07:42:59;;;;;;;3.47;2.40;;;23.70;82.70;;;;;;5060662;27;89051;-49
2022/09/18 07:45:27;;;;;;;2.90;1.97;;;23.70;82.70;;;;;;5033381;27;88848;-49
2022/09/18 07:47:56;;;;;;;3.67;1.90;;;;;;;;;;5048004;27;87186;-49
2022/09/18 07:50:24;;;;;;;4.97;2.70;;;23.60;81.30;;;;;;5053580;27;87156;-49
2022/09/18 07:52:52;;;;;;;3.30;2.10;;;23.60;82.60;;;;;;5052814;27;90036;-49
2022/09/18 07:55:20;;;;;;;7.07;2.77;;;23.60;82.70;;;;;;5058966;27;89610;-49
2022/09/18 07:57:51;;;;;;;4.40;2.30;;;23.60;82.30;;;;;;5056279;27;87042;-49
2022/09/18 08:00:20;;;;;;;4.10;2.30;;;23.60;82.30;;;;;;5059621;27;87687;-49
2022/09/18 08:02:48;;;;;;;3.30;2.33;;;23.60;82.70;;;;;;5054639;27;89334;-49
2022/09/18 08:05:16;;;;;;;7.97;2.60;;;23.60;82.30;;;;;;5057765;27;87830;-49
2022/09/18 08:07:44;;;;;;;5.10;3.10;;;23.60;82.60;;;;;;5044944;27;87298;-49
2022/09/18 08:10:12;;;;;;;4.57;3.10;;;23.60;82.40;;;;;;5042985;27;86399;-49
2022/09/18 08:12:40;;;;;;;5.60;4.23;;;23.60;82.40;;;;;;5047631;27;89050;-49
2022/09/18 08:15:09;;;;;;;6.30;3.30;;;23.60;82.50;;;;;;5054721;27;87774;-49
2022/09/18 08:17:45;;;;;;;8.57;4.50;;;23.60;82.30;;;;;;5040521;28;87957;-49
2022/09/18 08:20:13;;;;;;;6.07;3.97;;;23.60;82.50;;;;;;5042633;27;86982;-49
2022/09/18 08:22:41;;;;;;;7.73;4.47;;;23.60;82.10;;;;;;5061255;27;89029;-49
2022/09/18 08:25:09;;;;;;;9.40;5.00;;;23.50;82.20;;;;;;5059532;27;87678;-49
2022/09/18 08:27:37;;;;;;;10.17;6.00;;;23.60;82.30;;;;;;5048297;27;86972;-49
2022/09/18 08:30:06;;;;;;;12.73;7.53;;;23.50;82.30;;;;;;5045592;27;87017;-49
2022/09/18 08:32:34;;;;;;;11.47;6.20;;;23.50;82.10;;;;;;5053819;27;89095;-49
2022/09/18 08:35:04;;;;;;;19.90;8.97;;;23.50;82.20;;;;;;5041458;27;88751;-49
2022/09/18 08:37:32;;;;;;;21.80;9.63;;;23.50;82.40;;;;;;5041037;27;87061;-49
2022/09/18 08:40:00;;;;;;;13.17;9.07;;;23.50;82.50;;;;;;5043491;27;88295;-49
2022/09/18 08:42:32;;;;;;;19.97;10.33;;;23.50;82.50;;;;;;5060437;27;90172;-49
2022/09/18 08:45:01;;;;;;;17.97;9.53;;;23.60;82.60;;;;;;5054406;27;88518;-49
2022/09/18 08:47:31;;;;;;;15.97;8.47;;;23.50;82.60;;;;;;5048579;27;87137;-49
2022/09/18 08:50:00;;;;;;;18.20;9.37;;;23.50;83.50;;;;;;5041606;27;87077;-49
2022/09/18 08:52:31;;;;;;;21.60;9.73;;;23.50;82.50;;;;;;5049859;27;88810;-49
2022/09/18 08:55:01;;;;;;;14.23;8.93;;;23.40;82.60;;;;;;5039073;28;87561;-49
2022/09/18 08:57:32;;;;;;;17.33;8.83;;;23.40;82.20;;;;;;5040757;28;87126;-49
2022/09/18 09:00:01;;;;;;;16.73;9.60;;;23.40;82.10;;;;;;5041799;27;86364;-49
2022/09/18 09:02:42;;;;;;;18.80;9.33;;;23.50;82.20;;;;;;5040583;28;88822;-49
2022/09/18 09:05:11;;;;;;;17.33;8.87;;;;;;;;;;5039868;27;89045;-49
2022/09/18 09:08:07;;;;;;;17.27;9.23;;;23.40;81.00;;;;;;5039234;28;88019;-49
2022/09/18 09:10:42;;;;;;;17.87;10.10;;;23.40;82.10;;;;;;5030999;28;87956;-49
2022/09/18 09:13:52;;;;;;;15.80;8.63;;;23.40;82.10;;;;;;5039483;28;89097;-49
2022/09/18 09:16:24;;;;;;;15.60;8.57;;;23.40;82.10;;;;;;5039808;28;88870;-49
2022/09/18 09:18:59;;;;;;;13.07;7.63;;;;;;;;;;5039906;28;87147;-49
2022/09/18 09:21:40;;;;;;;18.43;8.67;;;23.40;80.70;;;;;;5039748;28;87099;-49
2022/09/18 09:24:19;;;;;;;13.13;7.50;;;23.40;82.10;;;;;;5020335;28;89159;-49
2022/09/18 09:26:47;;;;;;;18.07;7.90;;;23.40;81.80;;;;;;5040483;28;87867;-50
2022/09/18 09:29:18;;;;;;;12.67;7.67;;;23.50;81.90;;;;;;5039633;28;87046;-49
2022/09/18 09:31:48;;;;;;;12.70;8.43;;;23.50;82.10;;;;;;5040099;28;87089;-49
2022/09/18 09:34:18;;;;;;;12.80;7.40;;;23.50;81.90;;;;;;5039909;28;90273;-49
2022/09/18 09:36:47;;;;;;;13.33;6.43;;;23.50;82.10;;;;;;5037845;27;89918;-49
2022/09/18 09:39:20;;;;;;;9.73;6.23;;;23.50;81.80;;;;;;5043888;28;87297;-49
2022/09/18 09:41:51;;;;;;;14.67;7.53;;;23.40;81.60;;;;;;5043507;28;87145;-51
2022/09/18 09:44:25;;;;;;;12.23;7.30;;;23.50;81.40;;;;;;5042922;28;87901;-49
2022/09/18 09:47:01;;;;;;;12.40;7.13;;;23.40;81.10;;;;;;5042327;27;87801;-49
2022/09/18 09:49:30;;;;;;;11.27;6.57;;;23.40;81.40;;;;;;5042853;28;87028;-49
2022/09/18 09:52:02;;;;;;;11.70;5.63;;;23.50;81.60;;;;;;5043802;28;86312;-49
2022/09/18 09:54:37;;;;;;;9.87;5.67;;;23.50;81.60;;;;;;5047490;27;89088;-49
2022/09/18 09:57:12;;;;;;;8.60;5.27;;;23.50;81.70;;;;;;5042746;28;87589;-50
2022/09/18 09:59:44;;;;;;;11.10;5.40;;;23.50;81.70;;;;;;5044948;27;89718;-50
2022/09/18 10:02:39;;;;;;;9.70;5.50;;;23.40;81.50;;;;;;5041841;28;87008;-49
2022/09/18 10:05:15;;;;;;;10.90;5.47;;;23.50;81.90;;;;;;5020309;28;87095;-49
2022/09/18 10:07:46;;;;;;;8.53;5.17;;;23.40;81.90;;;;;;5042814;28;87635;-49
2022/09/18 10:10:20;;;;;;;11.33;5.03;;;23.40;81.80;;;;;;5043619;28;87079;-49
2022/09/18 10:12:50;;;;;;;9.27;5.17;;;23.40;81.50;;;;;;5042454;27;87027;-49
2022/09/18 10:15:20;;;;;;;7.17;4.30;;;23.40;82.00;;;;;;5042029;28;89033;-49
2022/09/18 10:17:48;;;;;;;11.53;5.03;;;23.40;82.10;;;;;;5043282;28;87772;-49
2022/09/18 10:20:16;;;;;;;7.50;4.53;;;23.40;81.80;;;;;;5042533;28;87033;-50
2022/09/18 10:22:45;;;;;;;6.43;4.23;;;23.40;81.60;;;;;;5046420;27;87634;-49
2022/09/18 10:25:17;;;;;;;9.60;4.67;;;23.40;81.70;;;;;;5042024;28;90084;-49
2022/09/18 10:27:45;;;;;;;9.27;4.73;;;23.40;82.10;;;;;;5028482;28;89856;-49
2022/09/18 10:30:14;;;;;;;8.57;5.40;;;23.40;82.10;;;;;;5042373;28;87071;-49
2022/09/18 10:32:42;;;;;;;10.60;3.97;;;23.40;82.10;;;;;;5042159;28;87030;-49
2022/09/18 10:35:40;;;;;;;7.50;3.73;;;23.40;82.10;;;;;;5041284;28;87329;-49
2022/09/18 10:38:31;;;;;;;5.93;3.60;;;23.30;82.10;;;;;;5031675;28;87372;-49
2022/09/18 10:41:19;;;;;;;5.03;3.77;;;23.40;82.20;;;;;;5042581;28;87091;-49
2022/09/18 10:43:58;;;;;;;6.70;4.47;;;23.30;82.20;;;;;;5027190;28;86398;-49
2022/09/18 10:46:27;;;;;;;7.40;4.30;;;23.40;82.60;;;;;;5039798;28;87422;-49
2022/09/18 10:48:57;;;;;;;6.70;3.60;;;23.30;83.50;;;;;;5023725;27;88832;-49
2022/09/18 10:51:27;;;;;;;8.83;4.37;;;23.30;82.40;;;;;;5020425;28;88203;-49
2022/09/18 10:54:03;;;;;;;9.13;4.47;;;23.40;82.60;;;;;;5022323;28;87071;-48
2022/09/18 10:56:33;;;;;;;8.90;4.73;;;23.40;82.80;;;;;;5019885;28;89082;-49
2022/09/18 10:59:32;;;;;;;9.93;5.10;;;23.40;82.60;;;;;;5018851;28;88346;-49
2022/09/18 11:02:01;;;;;;;11.23;5.60;;;23.40;82.30;;;;;;4975670;28;87127;-49
2022/09/18 11:04:30;;;;;;;10.73;5.37;;;;;;;;;;5020123;28;87040;-49
2022/09/18 11:07:01;;;;;;;7.80;5.17;;;23.30;81.50;;;;;;5020496;28;88127;-49
2022/09/18 11:09:33;;;;;;;13.90;6.13;;;23.40;83.10;;;;;;5031646;28;88948;-49
2022/09/18 11:12:03;;;;;;;10.90;5.50;;;23.30;82.70;;;;;;5024296;28;87261;-49
2022/09/18 11:14:32;;;;;;;12.83;6.03;;;23.40;82.90;;;;;;5030286;28;86935;-49
2022/09/18 11:17:01;;;;;;;12.83;5.33;;;23.40;82.70;;;;;;5028984;28;89960;-50
2022/09/18 11:19:31;;;;;;;10.80;5.50;;;23.30;82.70;;;;;;5028309;28;87464;-49
2022/09/18 11:22:01;;;;;;;9.53;5.30;;;23.40;82.80;;;;;;5026911;28;87584;-49
2022/09/18 11:24:32;;;;;;;10.50;5.83;;;23.40;82.60;;;;;;5015913;28;87161;-49
2022/09/18 11:27:01;;;;;;;11.43;6.80;;;23.40;82.90;;;;;;5020135;28;89128;-49
2022/09/18 11:29:31;;;;;;;10.33;5.40;;;23.30;83.00;;;;;;5022992;28;87678;-49
2022/09/18 11:32:10;;;;;;;14.10;7.00;;;23.30;82.90;;;;;;5021262;28;86953;-49
2022/09/18 11:34:38;;;;;;;12.23;7.53;;;23.30;82.70;;;;;;5019608;28;86460;-49
2022/09/18 11:37:08;;;;;;;19.67;8.50;;;23.40;83.10;;;;;;5019171;28;88122;-49
2022/09/18 11:39:39;;;;;;;15.43;8.97;;;23.40;83.10;;;;;;5020601;28;87641;-49
2022/09/18 11:42:09;;;;;;;16.07;8.30;;;23.40;83.50;;;;;;5026288;28;88262;-49
2022/09/18 11:44:38;;;;;;;16.63;9.37;;;23.40;83.60;;;;;;5007124;28;87550;-49
2022/09/18 11:47:25;;;;;;;16.63;9.83;;;23.70;85.10;;;;;;5021955;28;88898;-49
2022/09/18 11:50:13;;;;;;;20.57;10.90;;;23.30;83.70;;;;;;5041106;28;88868;-49
2022/09/18 11:52:43;;;;;;;17.97;10.73;;;23.40;83.60;;;;;;5038486;28;87185;-49
2022/09/18 11:55:20;;;;;;;17.37;11.57;;;23.40;83.60;;;;;;5041068;28;87161;-49
2022/09/18 11:57:49;;;;;;;22.07;12.93;;;23.40;83.40;;;;;;5038250;28;89251;-49
2022/09/18 12:00:20;;;;;;;18.70;10.37;;;23.40;83.40;;;;;;5020109;28;89010;-49
2022/09/18 12:02:54;;;;;;;20.97;11.40;;;23.40;83.80;;;;;;5021863;28;86933;-49
2022/09/18 12:05:25;;;;;;;21.53;12.27;;;23.40;83.60;;;;;;5020373;28;87051;-48
2022/09/18 12:08:01;;;;;;;26.93;14.77;;;23.40;84.00;;;;;;5023127;28;89124;-49
2022/09/18 12:10:40;;;;;;;26.00;12.60;;;23.40;84.00;;;;;;5040770;28;87399;-49
2022/09/18 12:13:19;;;;;;;25.30;12.73;;;23.40;83.90;;;;;;5022707;28;87031;-49
2022/09/18 12:15:51;;;;;;;20.57;13.47;;;23.40;84.20;;;;;;4999668;28;86999;-49
2022/09/18 12:18:21;;;;;;;28.00;15.53;;;23.40;84.00;;;;;;5017708;28;88050;-49
2022/09/18 12:20:51;;;;;;;22.73;14.83;;;23.40;84.10;;;;;;5019565;28;88767;-50
2022/09/18 12:23:23;;;;;;;29.90;14.00;;;23.50;84.50;;;;;;5037614;28;87051;-49
2022/09/18 12:25:58;;;;;;;24.13;13.33;;;23.50;84.60;;;;;;5033948;28;87413;-49
2022/09/18 12:28:29;;;;;;;23.50;13.57;;;23.40;85.00;;;;;;5020313;28;88902;-49
2022/09/18 12:31:00;;;;;;;25.27;14.70;;;;;;;;;;5020080;28;88935;-49
2022/09/18 12:33:32;;;;;;;24.93;15.10;;;;;;;;;;5018900;28;87902;-49
2022/09/18 12:36:06;;;;;;;27.63;14.63;;;;;;;;;;5019253;28;87213;-49
2022/09/18 12:38:42;;;;;;;28.67;15.83;;;;;;;;;;5020576;28;89076;-49
2022/09/18 12:41:14;;;;;;;30.70;15.70;;;;;;;;;;5028435;28;88779;-48
2022/09/18 12:43:58;;;;;;;23.80;13.80;;;23.40;93.50;;;;;;5029386;28;87122;-48
2022/09/18 12:46:44;;;;;;;24.60;13.73;;;;;;;;;;5026332;28;87191;-48
2022/09/18 12:49:21;;;;;;;27.63;13.97;;;;;;;;;;5032212;28;88724;-48
2022/09/18 12:51:49;;;;;;;24.73;14.47;;;;;;;;;;5037889;28;89290;-48
2022/09/18 12:54:31;;;;;;;26.63;14.73;;;;;;;;;;5037217;28;87277;-48
2022/09/18 12:57:05;;;;;;;29.63;13.93;;;;;;;;;;5034879;28;87671;-49
2022/09/18 12:59:57;;;;;;;23.43;13.53;;;;;;;;;;5037105;28;89036;-49
2022/09/18 13:02:29;;;;;;;26.67;13.93;;;;;;;;;;5022948;28;88873;-49
2022/09/18 13:04:59;;;;;;;22.73;12.27;;;;;;;;;;5038061;28;87123;-49
2022/09/18 13:07:28;;;;;;;24.00;12.50;;;;;;;;;;5033113;28;87034;-52
2022/09/18 13:09:57;;;;;;;22.50;11.87;;;;;;;;;;5036747;28;89341;-49
2022/09/18 13:12:26;;;;;;;21.33;12.50;;;;;;;;;;5037007;28;88059;-49
2022/09/18 13:14:55;;;;;;;20.97;12.67;;;;;;;;;;5037754;28;87171;-48